createdAt,value
2023-04-30T00:01:31.562Z,12.99
2023-04-30T00:03:36.531Z,12.95
2023-04-30T00:05:43.949Z,12.93
2023-04-30T00:07:48.858Z,12.95
2023-04-30T00:09:53.964Z,12.87
2023-04-30T00:11:59.046Z,12.86
2023-04-30T00:14:03.912Z,12.93
2023-04-30T00:16:11.573Z,12.96
2023-04-30T00:18:16.468Z,13.00
2023-04-30T00:20:21.432Z,12.97
2023-04-30T00:22:26.391Z,12.97
2023-04-30T00:24:31.797Z,12.97
2023-04-30T00:26:36.658Z,12.96
2023-04-30T00:28:43.687Z,12.95
2023-04-30T00:30:48.818Z,12.91
2023-04-30T00:32:56.567Z,12.84
2023-04-30T00:35:01.472Z,12.85
2023-04-30T00:37:06.547Z,12.87
2023-04-30T00:39:14.283Z,12.84
2023-04-30T00:41:19.527Z,12.83
2023-04-30T00:43:24.150Z,12.81
2023-04-30T00:45:29.147Z,12.79
2023-04-30T00:47:34.564Z,12.80
2023-04-30T00:49:42.228Z,12.85
2023-04-30T00:51:47.202Z,12.85
2023-04-30T00:53:52.622Z,12.83
2023-04-30T00:55:58.484Z,12.86
2023-04-30T00:58:04.091Z,12.82
2023-04-30T01:00:11.699Z,12.80
2023-04-30T01:02:17.475Z,12.80
2023-04-30T01:04:23.371Z,12.83
2023-04-30T01:06:31.803Z,12.83
2023-04-30T01:08:37.052Z,12.83
2023-04-30T01:10:50.376Z,12.85
2023-04-30T01:13:01.797Z,12.75
2023-04-30T01:15:12.824Z,12.79
2023-04-30T01:17:25.904Z,12.83
2023-04-30T01:19:41.000Z,12.87
2023-04-30T01:21:49.106Z,12.80
2023-04-30T01:24:19.005Z,12.77
2023-04-30T01:26:43.364Z,12.79
2023-04-30T01:28:54.859Z,12.76
2023-04-30T01:30:59.805Z,12.78
2023-04-30T01:33:05.549Z,12.78
2023-04-30T01:35:11.263Z,12.73
2023-04-30T01:37:25.229Z,12.72
2023-04-30T01:39:48.838Z,12.78
2023-04-30T01:42:01.895Z,12.77
2023-04-30T01:44:23.764Z,12.81
2023-04-30T01:46:31.808Z,12.85
2023-04-30T01:48:46.506Z,12.83
2023-04-30T01:50:54.908Z,12.79
2023-04-30T01:53:03.248Z,12.79
2023-04-30T01:55:13.817Z,12.79
2023-04-30T01:57:24.199Z,12.71
2023-04-30T01:59:32.142Z,12.74
2023-04-30T02:01:37.202Z,12.78
2023-04-30T02:03:41.979Z,12.77
2023-04-30T02:05:47.359Z,12.79
2023-04-30T02:07:52.868Z,12.77
2023-04-30T02:09:57.896Z,12.77
2023-04-30T02:12:03.395Z,12.76
2023-04-30T02:14:08.754Z,12.76
2023-04-30T02:16:16.376Z,12.77
2023-04-30T02:18:21.649Z,12.77
2023-04-30T02:20:26.291Z,12.71
2023-04-30T02:22:31.818Z,12.68
2023-04-30T02:24:36.714Z,12.67
2023-04-30T02:26:44.219Z,12.62
2023-04-30T02:28:49.056Z,12.62
2023-04-30T02:30:54.103Z,12.63
2023-04-30T02:33:02.886Z,12.64
2023-04-30T02:35:09.029Z,12.64
2023-04-30T02:37:14.087Z,12.63
2023-04-30T02:39:19.110Z,12.63
2023-04-30T02:41:24.413Z,12.56
2023-04-30T02:43:29.401Z,12.58
2023-04-30T02:45:34.894Z,12.43
2023-04-30T02:47:39.861Z,12.49
2023-04-30T02:49:48.600Z,12.45
2023-04-30T02:51:53.507Z,12.51
2023-04-30T02:53:58.391Z,12.53
2023-04-30T02:56:03.317Z,12.54
2023-04-30T02:58:08.302Z,12.52
2023-04-30T03:00:14.728Z,12.47
2023-04-30T03:02:21.825Z,12.46
2023-04-30T03:04:27.045Z,12.38
2023-04-30T03:06:35.012Z,12.34
2023-04-30T03:08:39.984Z,12.35
2023-04-30T03:10:45.101Z,12.31
2023-04-30T03:12:50.062Z,12.31
2023-04-30T03:14:56.231Z,12.17
2023-04-30T03:17:01.162Z,12.27
2023-04-30T03:19:06.487Z,12.32
2023-04-30T03:21:11.457Z,12.26
2023-04-30T03:23:18.978Z,12.22
2023-04-30T03:25:23.852Z,12.24
2023-04-30T03:27:28.839Z,12.14
2023-04-30T03:29:33.688Z,12.08
2023-04-30T03:31:38.795Z,12.06
2023-04-30T03:33:43.591Z,12.06
2023-04-30T03:35:49.910Z,12.05
2023-04-30T03:37:54.835Z,11.98
2023-04-30T03:40:02.263Z,11.84
2023-04-30T03:42:07.286Z,11.87
2023-04-30T03:44:16.061Z,11.82
2023-04-30T03:46:21.334Z,11.82
2023-04-30T03:48:27.436Z,11.86
2023-04-30T03:50:32.737Z,11.90
2023-04-30T03:52:37.644Z,11.87
2023-04-30T03:54:42.611Z,11.72
2023-04-30T03:56:50.135Z,11.73
2023-04-30T03:58:55.115Z,11.81
2023-04-30T04:01:00.116Z,11.87
2023-04-30T04:03:05.542Z,11.86
2023-04-30T04:05:11.303Z,11.75
2023-04-30T04:07:16.553Z,11.81
2023-04-30T04:09:21.518Z,11.87
2023-04-30T04:11:26.738Z,11.90
2023-04-30T04:13:35.186Z,11.86
2023-04-30T04:15:42.534Z,11.92
2023-04-30T04:17:47.560Z,11.97
2023-04-30T04:19:52.841Z,12.03
2023-04-30T04:21:57.996Z,12.09
2023-04-30T04:24:08.481Z,12.09
2023-04-30T04:26:13.410Z,12.04
2023-04-30T04:28:18.431Z,12.09
2023-04-30T04:30:26.287Z,12.12
2023-04-30T04:32:33.013Z,12.09
2023-04-30T04:34:38.666Z,12.10
2023-04-30T04:36:44.661Z,12.11
2023-04-30T04:38:49.527Z,12.03
2023-04-30T04:40:55.996Z,12.04
2023-04-30T04:43:01.618Z,12.03
2023-04-30T04:45:08.974Z,12.06
2023-04-30T04:47:16.991Z,12.03
2023-04-30T04:49:21.847Z,12.08
2023-04-30T04:51:27.100Z,12.09
2023-04-30T04:53:34.761Z,12.15
2023-04-30T04:55:39.953Z,12.19
2023-04-30T04:57:47.941Z,12.26
2023-04-30T04:59:53.291Z,12.30
2023-04-30T05:01:59.334Z,12.37
2023-04-30T05:04:08.259Z,12.45
2023-04-30T05:06:13.257Z,12.38
2023-04-30T05:08:18.338Z,12.34
2023-04-30T05:10:23.210Z,12.36
2023-04-30T05:12:28.081Z,12.38
2023-04-30T05:14:32.988Z,12.43
2023-04-30T05:16:38.070Z,12.44
2023-04-30T05:18:42.836Z,12.36
2023-04-30T05:20:50.840Z,12.37
2023-04-30T05:22:55.869Z,12.40
2023-04-30T05:25:00.777Z,12.43
2023-04-30T05:27:05.835Z,12.41
2023-04-30T05:29:10.802Z,12.41
2023-04-30T05:31:15.763Z,12.44
2023-04-30T05:33:20.648Z,12.40
2023-04-30T05:35:25.641Z,12.48
2023-04-30T05:37:33.115Z,12.52
2023-04-30T05:39:38.035Z,12.58
2023-04-30T05:41:42.934Z,12.55
2023-04-30T05:43:48.069Z,12.56
2023-04-30T05:45:52.920Z,12.63
2023-04-30T05:47:57.907Z,12.73
2023-04-30T05:50:02.908Z,12.77
2023-04-30T05:52:08.573Z,12.78
2023-04-30T05:54:16.007Z,12.82
2023-04-30T05:56:21.193Z,12.76
2023-04-30T05:58:26.146Z,12.80
2023-04-30T06:00:31.406Z,12.76
2023-04-30T06:02:36.661Z,12.82
2023-04-30T06:04:44.200Z,12.89
2023-04-30T06:06:49.213Z,12.87
2023-04-30T06:08:53.924Z,12.82
2023-04-30T06:11:03.898Z,12.85
2023-04-30T06:13:09.363Z,12.80
2023-04-30T06:15:14.617Z,12.76
2023-04-30T06:17:19.658Z,12.63
2023-04-30T06:19:24.523Z,12.53
2023-04-30T06:21:29.617Z,12.54
2023-04-30T06:23:34.556Z,12.51
2023-04-30T06:25:39.554Z,12.43
2023-04-30T06:27:46.983Z,12.40
2023-04-30T06:29:52.004Z,12.39
2023-04-30T06:31:56.961Z,12.45
2023-04-30T06:34:02.198Z,12.52
2023-04-30T06:36:07.909Z,12.57
2023-04-30T06:38:12.796Z,12.55
2023-04-30T06:40:17.875Z,12.68
2023-04-30T06:42:22.746Z,12.78
2023-04-30T06:44:30.182Z,12.87
2023-04-30T06:46:36.778Z,12.91
2023-04-30T06:48:44.436Z,13.02
2023-04-30T06:50:49.545Z,12.99
2023-04-30T06:52:54.433Z,13.11
2023-04-30T06:54:59.374Z,13.24
2023-04-30T06:57:04.606Z,13.27
2023-04-30T06:59:09.225Z,13.30
2023-04-30T07:01:16.693Z,13.34
2023-04-30T07:03:21.854Z,13.38
2023-04-30T07:05:26.737Z,13.35
2023-04-30T07:07:32.661Z,13.40
2023-04-30T07:09:37.767Z,13.28
2023-04-30T07:11:45.427Z,13.39
2023-04-30T07:13:50.274Z,13.42
2023-04-30T07:15:55.334Z,13.43
2023-04-30T07:18:04.120Z,13.53
2023-04-30T07:20:13.384Z,13.42
2023-04-30T07:22:18.253Z,13.46
2023-04-30T07:24:23.133Z,13.51
2023-04-30T07:26:28.031Z,13.51
2023-04-30T07:28:32.993Z,13.65
2023-04-30T07:30:37.908Z,13.73
2023-04-30T07:32:44.462Z,13.73
2023-04-30T07:34:52.539Z,13.81
2023-04-30T07:36:57.414Z,13.90
2023-04-30T07:39:02.353Z,13.94
2023-04-30T07:41:08.352Z,13.85
2023-04-30T07:43:13.181Z,13.96
2023-04-30T07:45:18.458Z,13.95
2023-04-30T07:47:23.070Z,13.91
2023-04-30T07:49:28.937Z,13.94
2023-04-30T07:51:36.581Z,13.96
2023-04-30T07:53:42.967Z,14.04
2023-04-30T07:55:48.006Z,14.07
2023-04-30T07:57:52.768Z,14.08
2023-04-30T07:59:57.890Z,14.12
2023-04-30T08:02:02.758Z,14.16
2023-04-30T08:04:07.745Z,14.19
2023-04-30T08:06:12.528Z,14.11
2023-04-30T08:08:19.772Z,14.32
2023-04-30T08:10:25.493Z,14.40
2023-04-30T08:12:30.520Z,14.57
2023-04-30T08:14:35.731Z,14.79
2023-04-30T08:16:43.745Z,14.98
2023-04-30T08:18:49.509Z,15.21
2023-04-30T08:20:54.171Z,15.25
2023-04-30T08:22:59.030Z,15.32
2023-04-30T08:25:06.332Z,15.40
2023-04-30T08:27:10.954Z,15.53
2023-04-30T08:29:15.617Z,15.58
2023-04-30T08:31:20.415Z,15.70
2023-04-30T08:33:25.142Z,15.72
2023-04-30T08:35:30.116Z,15.74
2023-04-30T08:37:34.765Z,15.73
2023-04-30T08:39:39.469Z,15.87
2023-04-30T08:41:49.396Z,15.93
2023-04-30T08:43:55.408Z,16.02
2023-04-30T08:46:00.510Z,16.14
2023-04-30T08:48:06.996Z,16.12
2023-04-30T08:50:12.400Z,16.15
2023-04-30T08:52:17.587Z,16.26
2023-04-30T08:54:22.465Z,16.43
2023-04-30T08:56:27.133Z,16.53
2023-04-30T08:58:34.389Z,16.59
2023-04-30T09:00:40.743Z,16.57
2023-04-30T09:02:45.951Z,16.50
2023-04-30T09:04:51.159Z,16.55
2023-04-30T09:06:59.218Z,16.49
2023-04-30T09:09:12.322Z,16.72
2023-04-30T09:11:27.095Z,16.88
2023-04-30T09:13:43.145Z,16.87
2023-04-30T09:15:47.868Z,16.89
2023-04-30T09:17:52.781Z,16.95
2023-04-30T09:19:58.104Z,16.97
2023-04-30T09:22:02.920Z,16.96
2023-04-30T09:24:08.340Z,16.73
2023-04-30T09:26:20.160Z,16.79
2023-04-30T09:28:27.604Z,16.77
2023-04-30T09:30:37.644Z,16.63
2023-04-30T09:32:57.469Z,16.73
2023-04-30T09:35:02.169Z,16.78
2023-04-30T09:37:07.721Z,16.81
2023-04-30T09:39:15.666Z,16.76
2023-04-30T09:41:28.854Z,16.78
2023-04-30T09:43:33.924Z,16.70
2023-04-30T09:45:49.237Z,16.81
2023-04-30T09:47:57.751Z,16.83
2023-04-30T09:50:10.636Z,16.87
2023-04-30T09:52:15.622Z,16.78
2023-04-30T09:54:22.306Z,16.71
2023-04-30T09:56:27.573Z,16.65
2023-04-30T09:58:33.396Z,16.73
2023-04-30T10:00:38.148Z,16.65
2023-04-30T10:02:45.613Z,16.25
2023-04-30T10:04:52.424Z,16.20
2023-04-30T10:06:57.963Z,16.12
2023-04-30T10:09:06.104Z,16.06
2023-04-30T10:11:13.131Z,16.04
2023-04-30T10:13:20.797Z,16.18
2023-04-30T10:15:28.330Z,16.26
2023-04-30T10:17:35.256Z,16.36
2023-04-30T10:19:47.826Z,16.39
2023-04-30T10:21:52.957Z,16.45
2023-04-30T10:23:58.122Z,16.42
2023-04-30T10:26:02.898Z,16.47
2023-04-30T10:28:08.345Z,16.64
2023-04-30T10:30:13.572Z,16.73
2023-04-30T10:32:18.595Z,16.82
2023-04-30T10:34:28.951Z,16.90
2023-04-30T10:36:44.888Z,16.96
2023-04-30T10:38:49.647Z,16.96
2023-04-30T10:40:54.477Z,17.13
2023-04-30T10:42:59.287Z,17.22
2023-04-30T10:45:08.090Z,17.35
2023-04-30T10:47:13.254Z,17.53
2023-04-30T10:49:18.120Z,17.55
2023-04-30T10:51:23.415Z,17.60
2023-04-30T10:53:34.018Z,17.62
2023-04-30T11:00:55.032Z,17.42
2023-04-30T11:03:00.972Z,17.42
2023-04-30T11:05:12.411Z,17.37
2023-04-30T11:07:17.417Z,17.28
2023-04-30T11:09:27.282Z,17.27
2023-04-30T11:11:36.761Z,17.23
2023-04-30T11:13:45.062Z,17.17
2023-04-30T11:15:49.751Z,17.33
2023-04-30T11:17:55.628Z,17.50
2023-04-30T11:20:02.595Z,17.52
2023-04-30T11:22:20.190Z,17.42
2023-04-30T11:24:47.369Z,17.36
2023-04-30T11:27:07.574Z,17.39
2023-04-30T11:29:12.674Z,17.43
2023-04-30T11:31:17.501Z,17.46
2023-04-30T11:33:22.378Z,17.48
2023-04-30T11:35:27.094Z,17.42
2023-04-30T11:37:33.697Z,17.42
2023-04-30T11:39:41.694Z,17.39
2023-04-30T11:41:46.711Z,17.34
2023-04-30T11:43:51.400Z,17.35
2023-04-30T11:46:07.452Z,17.27
2023-04-30T11:48:15.808Z,17.31
2023-04-30T11:50:22.407Z,17.31
2023-04-30T11:52:28.680Z,17.34
2023-04-30T11:54:35.388Z,17.38
2023-04-30T11:56:43.178Z,17.43
2023-04-30T11:58:49.395Z,17.49
2023-04-30T12:00:57.372Z,17.49
2023-04-30T12:03:03.892Z,17.48
2023-04-30T12:05:09.303Z,17.49
2023-04-30T12:07:13.919Z,17.45
2023-04-30T12:09:18.591Z,17.45
2023-04-30T12:11:23.733Z,17.54
2023-04-30T12:13:31.009Z,17.60
2023-04-30T12:15:35.820Z,17.61
2023-04-30T12:17:40.658Z,17.70
2023-04-30T12:19:49.281Z,17.77
2023-04-30T12:21:55.389Z,17.90
2023-04-30T12:24:02.096Z,18.05
2023-04-30T12:26:07.904Z,18.15
2023-04-30T12:28:13.024Z,18.20
2023-04-30T12:30:22.851Z,18.37
2023-04-30T12:32:27.587Z,18.45
2023-04-30T12:34:33.880Z,18.62
2023-04-30T12:36:42.769Z,18.73
2023-04-30T12:38:47.523Z,18.74
2023-04-30T12:40:52.196Z,18.81
2023-04-30T12:43:02.677Z,18.81
2023-04-30T12:45:08.079Z,18.75
2023-04-30T12:47:16.591Z,18.73
2023-04-30T12:49:29.050Z,18.72
2023-04-30T12:51:35.984Z,18.60
2023-04-30T12:56:13.149Z,18.38
2023-04-30T12:58:17.805Z,18.29
2023-04-30T13:00:24.260Z,18.24
2023-04-30T13:02:32.401Z,18.25
2023-04-30T13:04:40.189Z,18.35
2023-04-30T13:06:44.873Z,18.29
2023-04-30T13:08:57.980Z,18.33
2023-04-30T13:11:04.100Z,18.48
2023-04-30T13:13:08.711Z,18.71
2023-04-30T13:15:13.611Z,18.92
2023-04-30T13:17:18.256Z,19.09
2023-04-30T13:19:25.653Z,19.31
2023-04-30T13:21:30.452Z,19.57
2023-04-30T13:23:44.489Z,19.67
2023-04-30T13:25:56.680Z,19.87
2023-04-30T13:28:03.968Z,20.07
2023-04-30T13:30:09.602Z,20.25
2023-04-30T13:32:14.260Z,20.45
2023-04-30T13:34:18.868Z,20.34
2023-04-30T13:36:27.253Z,20.15
2023-04-30T13:38:31.857Z,20.01
2023-04-30T13:40:36.524Z,19.98
2023-04-30T13:42:41.945Z,19.88
2023-04-30T13:44:49.326Z,19.78
2023-04-30T13:46:54.057Z,19.73
2023-04-30T13:48:58.674Z,19.71
2023-04-30T13:51:03.371Z,19.72
2023-04-30T13:53:10.593Z,19.69
2023-04-30T13:55:15.272Z,19.71
2023-04-30T13:57:19.997Z,19.64
2023-04-30T13:59:24.668Z,19.58
2023-04-30T14:01:29.498Z,19.75
2023-04-30T14:03:34.439Z,19.81
2023-04-30T14:05:39.724Z,20.02
2023-04-30T14:07:44.689Z,20.22
2023-04-30T14:09:52.145Z,20.37
2023-04-30T14:11:58.198Z,20.35
2023-04-30T14:14:02.827Z,20.34
2023-04-30T14:16:07.807Z,20.49
2023-04-30T14:18:12.503Z,20.65
2023-04-30T14:20:17.229Z,20.84
2023-04-30T14:22:21.925Z,21.04
2023-04-30T14:24:26.679Z,21.14
2023-04-30T14:26:34.055Z,21.15
2023-04-30T14:28:38.719Z,21.27
2023-04-30T14:30:43.936Z,21.35
2023-04-30T14:32:48.740Z,21.36
2023-04-30T14:34:53.417Z,21.49
2023-04-30T14:36:59.533Z,21.44
2023-04-30T14:39:04.870Z,21.36
2023-04-30T14:41:09.530Z,21.44
2023-04-30T14:43:16.756Z,21.46
2023-04-30T14:45:21.402Z,21.66
2023-04-30T14:47:27.745Z,21.73
2023-04-30T14:49:32.464Z,21.78
2023-04-30T14:51:37.182Z,21.73
2023-04-30T14:53:41.813Z,21.63
2023-04-30T14:55:46.429Z,21.34
2023-04-30T14:57:51.122Z,21.09
2023-04-30T14:59:59.699Z,20.75
2023-04-30T15:02:04.389Z,20.74
2023-04-30T15:04:09.709Z,20.88
2023-04-30T15:06:14.376Z,21.06
2023-04-30T15:08:19.310Z,21.17
2023-04-30T15:10:23.991Z,21.38
2023-04-30T15:12:28.590Z,21.59
2023-04-30T15:14:33.212Z,21.74
2023-04-30T15:16:40.813Z,21.97
2023-04-30T15:18:45.552Z,22.13
2023-04-30T15:20:51.262Z,22.31
2023-04-30T15:22:56.779Z,22.59
2023-04-30T15:25:01.427Z,22.58
2023-04-30T15:27:06.168Z,22.50
2023-04-30T15:29:11.492Z,22.15
2023-04-30T15:31:16.743Z,21.87
2023-04-30T15:33:26.759Z,21.58
2023-04-30T15:35:31.521Z,21.27
2023-04-30T15:37:37.003Z,21.13
2023-04-30T15:39:41.686Z,21.01
2023-04-30T15:41:46.737Z,20.92
2023-04-30T15:43:51.648Z,20.96
2023-04-30T15:45:56.298Z,21.21
2023-04-30T15:48:00.952Z,21.38
2023-04-30T15:50:08.775Z,21.64
2023-04-30T15:52:13.426Z,21.76
2023-04-30T15:54:18.178Z,21.74
2023-04-30T15:56:25.872Z,21.80
2023-04-30T15:58:30.808Z,21.98
2023-04-30T16:00:35.739Z,22.23
2023-04-30T16:02:40.438Z,22.22
2023-04-30T16:04:45.071Z,22.08
2023-04-30T16:06:52.836Z,21.79
2023-04-30T16:08:57.629Z,21.42
2023-04-30T16:11:03.497Z,21.15
2023-04-30T16:13:08.173Z,20.86
2023-04-30T16:15:13.607Z,20.70
2023-04-30T16:17:18.269Z,20.58
2023-04-30T16:19:22.934Z,20.50
2023-04-30T16:21:29.515Z,20.34
2023-04-30T16:23:36.928Z,20.33
2023-04-30T16:25:41.572Z,20.31
2023-04-30T16:27:46.170Z,20.35
2023-04-30T16:29:51.039Z,20.37
2023-04-30T16:31:56.533Z,20.40
2023-04-30T16:34:01.289Z,20.36
2023-04-30T16:36:06.004Z,20.31
2023-04-30T16:38:10.631Z,20.32
2023-04-30T16:40:17.910Z,20.20
2023-04-30T16:42:22.619Z,20.06
2023-04-30T16:44:27.362Z,19.97
2023-04-30T16:46:32.154Z,19.86
2023-04-30T16:48:37.428Z,19.84
2023-04-30T16:50:42.059Z,19.75
2023-04-30T16:52:46.691Z,19.65
2023-04-30T16:54:52.337Z,19.56
2023-04-30T16:56:59.526Z,19.49
2023-04-30T16:59:04.202Z,19.40
2023-04-30T17:01:09.184Z,19.33
2023-04-30T17:03:13.940Z,19.28
2023-04-30T17:05:18.639Z,19.26
2023-04-30T17:07:23.270Z,19.20
2023-04-30T17:09:29.887Z,19.15
2023-04-30T17:11:34.631Z,19.10
2023-04-30T17:13:41.931Z,19.06
2023-04-30T17:15:46.584Z,19.01
2023-04-30T17:17:51.520Z,18.97
2023-04-30T17:19:56.560Z,18.93
2023-04-30T17:22:02.001Z,18.88
2023-04-30T17:24:06.877Z,18.78
2023-04-30T17:26:12.418Z,18.68
2023-04-30T17:28:17.453Z,18.60
2023-04-30T17:30:25.238Z,18.47
2023-04-30T17:32:30.002Z,18.45
2023-04-30T17:34:56.274Z,18.33
2023-04-30T17:37:00.919Z,18.26
2023-04-30T17:39:05.775Z,18.24
2023-04-30T17:41:10.603Z,18.20
2023-04-30T17:43:15.201Z,18.11
2023-04-30T17:45:20.161Z,18.07
2023-04-30T17:47:27.583Z,18.05
2023-04-30T17:49:32.231Z,18.02
2023-04-30T17:51:37.210Z,17.98
2023-04-30T17:53:41.813Z,17.97
2023-04-30T17:55:46.867Z,17.88
2023-04-30T17:57:53.985Z,17.86
2023-04-30T17:59:59.186Z,17.81
2023-04-30T18:02:05.763Z,17.79
2023-04-30T18:04:13.136Z,17.77
2023-04-30T18:06:17.899Z,17.74
2023-04-30T18:08:22.685Z,17.70
2023-04-30T18:10:27.294Z,17.69
2023-04-30T18:12:31.972Z,17.63
2023-04-30T18:14:37.016Z,17.60
2023-04-30T18:16:41.661Z,17.59
2023-04-30T18:18:46.593Z,17.55
2023-04-30T18:20:54.015Z,17.46
2023-04-30T18:22:58.641Z,17.42
2023-04-30T18:25:03.245Z,17.36
2023-04-30T18:27:07.931Z,17.32
2023-04-30T18:29:13.238Z,17.27
2023-04-30T18:31:18.901Z,17.23
2023-04-30T18:33:23.695Z,17.18
2023-04-30T18:35:28.724Z,17.13
2023-04-30T18:37:36.003Z,17.10
2023-04-30T18:39:41.237Z,17.05
2023-04-30T18:41:45.869Z,17.03
2023-04-30T18:43:50.527Z,16.97
2023-04-30T18:45:55.302Z,16.94
2023-04-30T18:48:00.015Z,16.88
2023-04-30T18:50:04.730Z,16.85
2023-04-30T18:52:09.380Z,16.84
2023-04-30T18:54:16.546Z,16.83
2023-04-30T18:56:22.234Z,16.80
2023-04-30T18:58:26.898Z,16.79
2023-04-30T19:00:31.523Z,16.74
2023-04-30T19:02:36.382Z,16.68
2023-04-30T19:04:41.155Z,16.66
2023-04-30T19:06:48.369Z,16.64
2023-04-30T19:08:53.143Z,16.56
2023-04-30T19:11:00.384Z,16.51
2023-04-30T19:13:07.397Z,16.49
2023-04-30T19:15:15.079Z,16.46
2023-04-30T19:17:21.836Z,16.44
2023-04-30T19:19:26.967Z,16.42
2023-04-30T19:21:32.714Z,16.38
2023-04-30T19:23:37.279Z,16.35
2023-04-30T19:25:41.915Z,16.33
2023-04-30T19:27:49.553Z,16.31
2023-04-30T19:29:58.330Z,16.28
2023-04-30T19:32:04.984Z,16.25
2023-04-30T19:34:11.386Z,16.23
2023-04-30T19:36:17.552Z,16.22
2023-04-30T19:38:22.356Z,16.19
2023-04-30T19:40:27.134Z,16.17
2023-04-30T19:42:32.803Z,16.13
2023-04-30T19:44:40.218Z,16.10
2023-04-30T19:46:45.275Z,16.03
2023-04-30T19:48:50.930Z,15.99
2023-04-30T19:50:57.932Z,15.97
2023-04-30T19:53:02.552Z,15.91
2023-04-30T19:55:07.481Z,15.89
2023-04-30T19:57:12.058Z,15.86
2023-04-30T19:59:19.148Z,15.82
2023-04-30T20:01:26.646Z,15.80
2023-04-30T20:03:31.468Z,15.78
2023-04-30T20:05:36.896Z,15.77
2023-04-30T20:07:42.421Z,15.73
2023-04-30T20:09:47.181Z,15.63
2023-04-30T20:11:52.297Z,15.53
2023-04-30T20:13:57.477Z,15.34
2023-04-30T20:16:02.566Z,15.17
2023-04-30T20:18:09.951Z,15.06
2023-04-30T20:20:15.426Z,14.90
2023-04-30T20:22:20.027Z,14.85
2023-04-30T20:24:24.802Z,14.82
2023-04-30T20:26:29.436Z,14.75
2023-04-30T20:28:34.091Z,14.70
2023-04-30T20:30:39.862Z,14.70
2023-04-30T20:32:44.529Z,14.68
2023-04-30T20:34:52.399Z,14.64
2023-04-30T20:36:57.063Z,14.65
2023-04-30T20:39:01.726Z,14.66
2023-04-30T20:41:06.473Z,14.64
2023-04-30T20:43:12.929Z,14.62
2023-04-30T20:45:18.086Z,14.58
2023-04-30T20:47:22.812Z,14.55
2023-04-30T20:49:27.774Z,14.54
2023-04-30T20:51:35.051Z,14.55
2023-04-30T20:53:41.632Z,14.52
2023-04-30T20:55:46.545Z,14.49
2023-04-30T20:57:52.240Z,14.45
2023-04-30T20:59:57.171Z,14.36
2023-04-30T21:02:02.101Z,14.35
2023-04-30T21:04:06.808Z,14.30
2023-04-30T21:06:11.618Z,14.27
2023-04-30T21:08:18.881Z,14.21
2023-04-30T21:10:23.557Z,14.18
2023-04-30T21:12:28.219Z,14.13
2023-04-30T21:14:32.953Z,14.12
2023-04-30T21:16:38.420Z,14.10
2023-04-30T21:18:44.543Z,14.08
2023-04-30T21:20:49.229Z,14.04
2023-04-30T21:22:55.186Z,14.01
2023-04-30T21:25:02.528Z,13.93
2023-04-30T21:27:07.304Z,13.91
2023-04-30T21:29:12.211Z,13.91
2023-04-30T21:31:16.920Z,13.88
2023-04-30T21:33:21.750Z,13.86
2023-04-30T21:35:27.749Z,13.82
2023-04-30T21:37:32.629Z,13.80
2023-04-30T21:39:37.226Z,13.77
2023-04-30T21:41:44.466Z,13.76
2023-04-30T21:43:49.121Z,13.75
2023-04-30T21:45:53.839Z,13.72
2023-04-30T21:47:58.496Z,13.69
2023-04-30T21:50:03.214Z,13.69
2023-04-30T21:52:08.575Z,13.70
2023-04-30T21:54:13.223Z,13.72
2023-04-30T21:56:19.172Z,13.73
2023-04-30T21:58:28.335Z,13.74
2023-04-30T22:00:32.974Z,13.77
2023-04-30T22:02:37.941Z,13.79
2023-04-30T22:04:43.103Z,13.79
2023-04-30T22:06:48.202Z,13.80
2023-04-30T22:08:52.903Z,13.81
2023-04-30T22:11:01.316Z,13.80
2023-04-30T22:13:05.978Z,13.75
2023-04-30T22:15:14.278Z,13.71
2023-04-30T22:17:18.891Z,13.66
2023-04-30T22:19:23.693Z,13.64
2023-04-30T22:21:28.327Z,13.68
2023-04-30T22:23:32.971Z,13.69
2023-04-30T22:25:37.609Z,13.67
2023-04-30T22:27:43.606Z,13.57
2023-04-30T22:29:51.678Z,13.56
2023-04-30T22:31:59.758Z,13.44
2023-04-30T22:34:06.883Z,13.38
2023-04-30T22:36:11.653Z,13.39
2023-04-30T22:38:16.387Z,13.42
2023-04-30T22:40:21.069Z,13.41
2023-04-30T22:42:26.531Z,13.40
2023-04-30T22:44:32.045Z,13.38
2023-04-30T22:46:36.944Z,13.35
2023-04-30T22:48:44.612Z,13.33
2023-04-30T22:50:49.276Z,13.32
2023-04-30T22:52:56.506Z,13.22
2023-04-30T22:55:02.180Z,13.22
2023-04-30T22:57:06.960Z,13.21
2023-04-30T22:59:11.861Z,13.20
2023-04-30T23:01:16.991Z,13.17
2023-04-30T23:03:21.790Z,13.16
2023-04-30T23:05:29.114Z,13.14
2023-04-30T23:07:34.013Z,13.15
2023-04-30T23:09:40.673Z,13.14
2023-04-30T23:11:45.771Z,13.09
2023-04-30T23:13:50.523Z,13.03
2023-04-30T23:15:55.230Z,13.00
2023-04-30T23:18:00.506Z,13.01
2023-04-30T23:20:05.192Z,13.04
2023-04-30T23:22:12.856Z,13.08
2023-04-30T23:24:17.494Z,13.09
2023-04-30T23:26:23.008Z,13.10
2023-04-30T23:28:27.854Z,13.10
2023-04-30T23:30:32.797Z,13.11
2023-04-30T23:32:37.862Z,13.10
2023-04-30T23:34:42.871Z,13.08
2023-04-30T23:36:47.636Z,13.06
2023-04-30T23:38:54.916Z,13.06
2023-04-30T23:40:59.499Z,13.00
2023-04-30T23:43:04.196Z,12.98
2023-04-30T23:45:09.410Z,12.98
2023-04-30T23:47:14.230Z,12.95
2023-04-30T23:49:19.056Z,12.92
2023-04-30T23:51:23.861Z,12.95
2023-04-30T23:53:28.684Z,12.92
2023-04-30T23:55:36.042Z,12.91
2023-04-30T23:57:40.655Z,12.88
2023-04-30T23:59:45.462Z,12.86
